Time;durP1;ratioP1;P1;durP2;ratioP2;P2;SDS_P1;SDS_P2;PMS_P1;PMS_P2;Temp;Humidity;BMP_temperature;BMP_pressure;BME280_temperature;BME280_humidity;BME280_pressure;Samples;Min_cycle;Max_cycle;Signal;HPM_P1;HPM_P2
2022/02/15 00:01:36;;;;;;;7.23;1.97;;;;;;;6.20;100.00;100252.00;4964950;28;20450;-69
2022/02/15 00:04:03;;;;;;;5.23;1.97;;;;;;;6.54;100.00;100296.72;4960454;28;20210;-69
2022/02/15 00:06:28;;;;;;;6.87;2.20;;;;;;;6.66;100.00;100314.88;4956665;28;20445;-69
2022/02/15 00:08:54;;;;;;;5.90;1.60;;;;;;;6.22;100.00;100246.47;4961852;28;20528;-69
2022/02/15 00:11:19;;;;;;;3.30;1.50;;;;;;;6.72;100.00;100314.97;4961918;28;20209;-70
2022/02/15 00:13:45;;;;;;;5.63;1.60;;;;;;;6.49;100.00;100312.41;4964483;28;20245;-69
2022/02/15 00:16:10;;;;;;;7.57;2.13;;;;;;;6.57;100.00;100327.50;4957300;28;20190;-70
2022/02/15 00:18:35;;;;;;;8.80;2.10;;;;;;;6.56;100.00;100328.47;4960757;28;20186;-70
2022/02/15 00:21:01;;;;;;;4.70;1.43;;;;;;;6.34;100.00;100292.97;4962233;28;20624;-69
2022/02/15 00:23:27;;;;;;;6.50;1.90;;;;;;;5.88;100.00;100221.22;4963679;28;20610;-69
2022/02/15 00:25:53;;;;;;;3.70;1.23;;;;;;;6.45;100.00;100326.28;4959095;28;20497;-69
2022/02/15 00:28:18;;;;;;;10.20;2.50;;;;;;;6.74;100.00;100322.75;4941210;28;20512;-69
2022/02/15 00:30:44;;;;;;;6.67;1.87;;;;;;;6.40;100.00;100316.19;4961501;28;20209;-69
2022/02/15 00:33:09;;;;;;;5.17;1.50;;;;;;;6.14;100.00;100267.88;4958381;28;20194;-70
2022/02/15 00:35:35;;;;;;;7.13;1.60;;;;;;;6.69;100.00;100344.66;4943691;28;20293;-69
2022/02/15 00:38:00;;;;;;;4.30;1.37;;;;;;;6.46;100.00;100346.59;4958385;28;20550;-69
2022/02/15 00:40:26;;;;;;;3.93;1.70;;;;;;;6.27;100.00;100302.69;4965145;28;20198;-69
2022/02/15 00:42:52;;;;;;;7.17;1.30;;;;;;;6.34;100.00;100306.28;4965611;28;20595;-69
2022/02/15 00:45:18;;;;;;;3.53;1.67;;;;;;;6.34;100.00;100324.91;4961297;28;20262;-69
2022/02/15 00:47:43;;;;;;;3.07;1.50;;;;;;;6.47;100.00;100349.06;4962472;28;20442;-70
2022/02/15 00:50:09;;;;;;;2.87;1.63;;;;;;;6.48;100.00;100349.88;4959277;28;20276;-69
2022/02/15 00:52:35;;;;;;;6.83;1.50;;;;;;;6.45;100.00;100366.25;4964238;28;20187;-69
2022/02/15 00:55:00;;;;;;;5.03;1.30;;;;;;;6.45;100.00;100377.75;4953381;28;20537;-69
2022/02/15 00:57:26;;;;;;;8.63;1.83;;;;;;;6.54;100.00;100368.66;4960207;28;20198;-69
2022/02/15 00:59:52;;;;;;;7.00;1.83;;;;;;;6.55;100.00;100372.97;4961554;28;20258;-69
2022/02/15 01:02:18;;;;;;;7.10;2.27;;;;;;;5.99;100.00;100302.47;4958935;28;20198;-69
2022/02/15 01:04:44;;;;;;;6.30;1.87;;;;;;;6.48;100.00;100379.19;4958074;28;20600;-69
2022/02/15 01:07:10;;;;;;;7.20;1.73;;;;;;;6.02;100.00;100323.44;4959124;28;20975;-69
2022/02/15 01:09:35;;;;;;;5.57;1.90;;;;;;;6.29;100.00;100360.09;4960410;28;20473;-69
2022/02/15 01:12:01;;;;;;;7.87;2.27;;;;;;;6.54;100.00;100395.28;4961219;28;20214;-69
2022/02/15 01:14:27;;;;;;;8.27;2.10;;;;;;;6.27;100.00;100331.97;4961894;28;20896;-70
2022/02/15 01:16:53;;;;;;;11.30;2.93;;;;;;;6.51;100.00;100389.50;4941872;28;20453;-69
2022/02/15 01:19:18;;;;;;;7.77;2.03;;;;;;;6.49;100.00;100389.69;4963043;28;20586;-69
2022/02/15 01:21:44;;;;;;;4.90;1.87;;;;;;;6.36;100.00;100340.72;4958887;28;20252;-69
2022/02/15 01:24:09;;;;;;;9.03;1.80;;;;;;;6.28;100.00;100346.97;4959603;28;20232;-70
2022/02/15 01:26:35;;;;;;;11.07;2.30;;;;;;;6.38;100.00;100354.69;4959048;28;20197;-69
2022/02/15 01:29:00;;;;;;;10.20;2.80;;;;;;;6.47;100.00;100374.88;4964531;28;20321;-69
2022/02/15 01:31:26;;;;;;;10.53;2.40;;;;;;;6.61;100.00;100390.06;4946149;28;20186;-70
2022/02/15 01:33:52;;;;;;;9.00;2.80;;;;;;;6.63;100.00;100374.72;4961970;28;20281;-70
2022/02/15 01:36:17;;;;;;;11.30;2.43;;;;;;;6.41;100.00;100357.78;4957677;28;20191;-69
2022/02/15 01:38:43;;;;;;;9.37;2.40;;;;;;;6.74;100.00;100405.38;4961611;28;20347;-70
2022/02/15 01:41:09;;;;;;;13.50;2.27;;;;;;;6.76;100.00;100408.69;4953169;28;20619;-70
2022/02/15 01:43:43;;;;;;;12.67;2.73;;;;;;;6.77;100.00;100419.19;4960206;28;20190;-69
2022/02/15 01:46:10;;;;;;;8.90;2.33;;;;;;;6.77;100.00;100427.19;4959358;28;20508;-69
2022/02/15 01:48:36;;;;;;;7.63;2.33;;;;;;;6.74;100.00;100432.03;4960255;28;20572;-69
2022/02/15 01:51:04;;;;;;;13.00;2.50;;;;;;;6.84;100.00;100423.78;4963175;28;21096;-69
2022/02/15 01:53:32;;;;;;;6.10;2.23;;;;;;;6.60;100.00;100388.41;4941141;28;20446;-69
2022/02/15 01:55:59;;;;;;;9.47;1.93;;;;;;;6.79;100.00;100419.00;4958763;28;21059;-70
2022/02/15 01:58:24;;;;;;;6.97;2.50;;;;;;;6.86;100.00;100438.59;4964231;28;20449;-70
2022/02/15 02:00:51;;;;;;;13.30;2.57;;;;;;;6.36;100.00;100352.19;4960398;28;20472;-69
2022/02/15 02:03:16;;;;;;;5.03;1.53;;;;;;;6.72;100.00;100410.09;4964778;28;20204;-69
2022/02/15 02:05:48;;;;;;;11.13;2.23;;;;;;;6.68;100.00;100409.63;4959086;28;20580;-70
2022/02/15 02:08:22;;;;;;;12.40;2.00;;;;;;;6.91;100.00;100441.50;4959943;28;20554;-69
2022/02/15 02:10:49;;;;;;;9.00;2.00;;;;;;;6.78;100.00;100444.81;4960385;28;20496;-69
2022/02/15 02:13:14;;;;;;;11.50;2.47;;;;;;;6.82;100.00;100431.13;4963289;28;20453;-69
2022/02/15 02:15:42;;;;;;;7.13;1.63;;;;;;;6.92;100.00;100447.69;4960342;28;20473;-69
2022/02/15 02:18:07;;;;;;;13.40;2.40;;;;;;;6.77;100.00;100421.03;4962673;28;20190;-69
2022/02/15 02:20:33;;;;;;;9.93;1.80;;;;;;;6.84;100.00;100445.13;4964358;28;20449;-69
2022/02/15 02:22:59;;;;;;;10.20;2.20;;;;;;;6.85;100.00;100442.25;4959196;28;20194;-69
2022/02/15 02:25:25;;;;;;;9.33;2.17;;;;;;;6.70;100.00;100434.25;4958944;28;20949;-69
2022/02/15 02:27:50;;;;;;;7.10;1.83;;;;;;;6.95;100.00;100469.47;4939798;28;20205;-69
2022/02/15 02:30:17;;;;;;;11.73;2.73;;;;;;;6.92;100.00;100461.03;4959270;28;20221;-69
2022/02/15 02:32:42;;;;;;;14.97;2.10;;;;;;;6.95;100.00;100456.13;4961910;28;20183;-69
2022/02/15 02:35:09;;;;;;;5.50;1.80;;;;;;;6.83;100.00;100459.44;4958627;28;20471;-69
2022/02/15 02:37:37;;;;;;;12.00;2.30;;;;;;;6.92;100.00;100464.50;4960339;28;20225;-69
2022/02/15 02:40:05;;;;;;;8.00;2.10;;;;;;;6.85;100.00;100468.09;4961561;28;20441;-69
2022/02/15 02:42:31;;;;;;;9.50;2.27;;;;;;;6.46;100.00;100427.34;4963219;28;20453;-69
2022/02/15 02:45:01;;;;;;;9.40;2.17;;;;;;;6.78;100.00;100486.66;4963657;28;20600;-69
2022/02/15 02:47:27;;;;;;;7.17;1.93;;;;;;;6.69;100.00;100467.25;4961843;28;20209;-69
2022/02/15 02:49:53;;;;;;;9.40;2.17;;;;;;;6.59;100.00;100439.22;4925045;28;20478;-69
2022/02/15 02:52:21;;;;;;;6.70;2.40;;;;;;;6.81;100.00;100486.28;4963416;28;20595;-68
2022/02/15 02:54:47;;;;;;;14.03;2.30;;;;;;;6.63;100.00;100473.31;4960422;28;20472;-69
2022/02/15 02:57:13;;;;;;;8.50;1.80;;;;;;;6.93;100.00;100487.47;4958195;28;20453;-69
2022/02/15 02:59:40;;;;;;;12.20;2.20;;;;;;;6.50;100.00;100430.47;4958650;28;20727;-69
2022/02/15 03:02:07;;;;;;;11.40;2.77;;;;;;;6.63;100.00;100465.31;4958546;28;20947;-70
2022/02/15 03:04:33;;;;;;;7.10;1.83;;;;;;;6.63;100.00;100475.97;4972931;23;21511;-71
2022/02/15 03:06:58;;;;;;;14.43;2.80;;;;;;;6.47;100.00;100465.47;4997042;28;20460;-71
2022/02/15 03:09:23;;;;;;;10.03;2.30;;;;;;;6.56;100.00;100462.53;4995763;28;20212;-72
2022/02/15 03:11:51;;;;;;;13.07;2.10;;;;;;;6.76;100.00;100486.81;4997428;28;21373;-72
2022/02/15 03:14:17;;;;;;;14.83;2.40;;;;;;;6.83;100.00;100518.09;4996641;28;20219;-72
2022/02/15 03:16:42;;;;;;;9.30;2.10;;;;;;;6.07;100.00;100409.72;4999436;28;20453;-71
2022/02/15 03:19:08;;;;;;;7.30;1.57;;;;;;;6.06;100.00;100393.94;5004253;28;20451;-71
2022/02/15 03:21:33;;;;;;;9.43;2.57;;;;;;;6.48;100.00;100483.97;4999044;28;20189;-71
2022/02/15 03:23:59;;;;;;;14.37;2.57;;;;;;;6.66;100.00;100502.28;4995530;28;20199;-72
2022/02/15 03:26:24;;;;;;;11.03;1.57;;;;;;;6.71;100.00;100515.03;4999881;28;20197;-72
2022/02/15 03:28:50;;;;;;;15.20;1.83;;;;;;;6.68;100.00;100515.41;5002819;28;20244;-71
2022/02/15 03:31:15;;;;;;;6.10;1.50;;;;;;;6.83;100.00;100531.41;5002421;28;20276;-71
2022/02/15 03:33:40;;;;;;;6.30;1.83;;;;;;;6.87;100.00;100536.22;5001871;28;20268;-72
2022/02/15 03:36:06;;;;;;;8.53;1.90;;;;;;;6.76;100.00;100526.81;4998759;28;20682;-72
2022/02/15 03:38:31;;;;;;;10.53;2.30;;;;;;;6.84;100.00;100539.25;4999327;28;20181;-72
2022/02/15 03:43:40;;;;;;;9.87;2.20;;;;;;;6.76;100.00;100544.66;5002841;28;20332;-71
2022/02/15 03:46:06;;;;;;;12.37;2.67;;;;;;;6.54;100.00;100493.88;4998023;28;20464;-70
2022/02/15 03:48:31;;;;;;;12.40;2.43;;;;;;;6.69;100.00;100557.88;5005099;28;20239;-70
2022/02/15 03:50:57;;;;;;;12.93;2.50;;;;;;;6.77;100.00;100538.31;5004033;28;20670;-70
2022/02/15 03:53:22;;;;;;;6.70;2.20;;;;;;;6.72;100.00;100544.19;5003546;28;20291;-71
2022/02/15 03:55:49;;;;;;;13.17;2.07;;;;;;;6.92;100.00;100563.16;5000497;28;20205;-70
2022/02/15 03:58:15;;;;;;;10.87;1.80;;;;;;;6.79;100.00;100554.94;5000697;28;20195;-70
2022/02/15 04:00:40;;;;;;;9.23;2.00;;;;;;;6.83;100.00;100564.25;5002560;28;20450;-70
2022/02/15 04:03:07;;;;;;;9.13;2.40;;;;;;;6.51;100.00;100536.06;4998054;28;20440;-69
2022/02/15 04:05:33;;;;;;;6.03;2.30;;;;;;;6.86;100.00;100581.72;4999978;28;20213;-69
2022/02/15 04:07:59;;;;;;;8.80;2.13;;;;;;;6.74;100.00;100559.97;4998916;28;20457;-70
2022/02/15 04:10:25;;;;;;;12.00;2.33;;;;;;;6.34;100.00;100508.72;4995468;28;20215;-70
2022/02/15 04:12:50;;;;;;;9.57;2.83;;;;;;;6.78;100.00;100593.28;4999061;28;20440;-71
2022/02/15 04:15:19;;;;;;;15.60;3.50;;;;;;;6.63;100.00;100568.44;5000430;28;20212;-70
2022/02/15 04:17:44;;;;;;;11.73;2.57;;;;;;;6.71;100.00;100552.34;4999544;28;20188;-70
2022/02/15 04:20:12;;;;;;;11.50;2.90;;;;;;;6.43;100.00;100533.47;4995552;28;20454;-70
2022/02/15 04:22:38;;;;;;;9.57;2.77;;;;;;;6.77;100.00;100578.31;4992316;28;20189;-69
2022/02/15 04:25:05;;;;;;;8.43;2.03;;;;;;;6.81;100.00;100608.09;4993849;28;20464;-70
2022/02/15 04:27:31;;;;;;;8.17;2.20;;;;;;;6.81;100.00;100610.75;4995545;28;20658;-71
2022/02/15 04:29:56;;;;;;;6.33;2.00;;;;;;;6.82;100.00;100607.06;5002132;28;20467;-70
2022/02/15 04:32:22;;;;;;;10.43;1.97;;;;;;;6.40;100.00;100561.28;4995563;28;20450;-70
2022/02/15 04:34:48;;;;;;;5.73;1.80;;;;;;;6.77;100.00;100643.13;4998250;28;20282;-70
2022/02/15 04:37:14;;;;;;;10.77;2.23;;;;;;;6.74;100.00;100605.31;4999389;28;20223;-70
2022/02/15 04:39:40;;;;;;;12.17;2.47;;;;;;;6.76;100.00;100640.63;4995914;28;20451;-71
2022/02/15 04:42:05;;;;;;;11.77;2.23;;;;;;;6.86;100.00;100630.53;4992486;28;20452;-70
2022/02/15 04:44:31;;;;;;;12.63;1.73;;;;;;;6.36;100.00;100537.81;4980616;28;20275;-70
2022/02/15 04:46:56;;;;;;;11.17;1.90;;;;;;;6.50;100.00;100564.50;4988254;28;20192;-71
2022/02/15 04:49:22;;;;;;;10.00;2.30;;;;;;;6.75;100.00;100628.31;4997898;28;20217;-71
2022/02/15 04:51:47;;;;;;;10.03;2.27;;;;;;;6.72;100.00;100634.81;4998024;28;20220;-71
2022/02/15 04:54:14;;;;;;;5.50;2.00;;;;;;;6.57;100.00;100573.47;4991152;28;22284;-71
2022/02/15 04:56:40;;;;;;;9.37;2.10;;;;;;;6.61;100.00;100594.44;4994058;28;20205;-69
2022/02/15 04:59:05;;;;;;;12.43;2.30;;;;;;;6.34;100.00;100546.00;4998502;28;20495;-70
2022/02/15 05:01:31;;;;;;;8.23;2.40;;;;;;;6.83;100.00;100638.91;4994728;28;20196;-70
2022/02/15 05:03:56;;;;;;;7.77;1.87;;;;;;;6.75;100.00;100628.31;4992336;28;20214;-71
2022/02/15 05:06:21;;;;;;;8.87;1.57;;;;;;;6.86;100.00;100649.22;4991230;28;20204;-71
2022/02/15 05:08:47;;;;;;;8.23;1.90;;;;;;;6.48;100.00;100601.19;4995400;28;20678;-71
2022/02/15 05:11:13;;;;;;;6.10;1.57;;;;;;;6.83;100.00;100673.56;4994250;28;20197;-71
2022/02/15 05:13:39;;;;;;;6.80;1.70;;;;;;;6.31;100.00;100555.19;4992378;28;20591;-70
2022/02/15 05:16:04;;;;;;;8.50;1.77;;;;;;;6.65;100.00;100627.69;4993729;28;20472;-70
2022/02/15 05:18:30;;;;;;;5.83;1.80;;;;;;;6.84;100.00;100661.06;4995433;28;20236;-69
2022/02/15 05:20:55;;;;;;;6.80;1.90;;;;;;;6.75;100.00;100633.63;4993119;28;20272;-70
2022/02/15 05:23:21;;;;;;;7.67;2.37;;;;;;;6.47;100.00;100578.19;4989567;28;20677;-71
2022/02/15 05:25:46;;;;;;;7.60;1.73;;;;;;;6.57;100.00;100621.44;4991872;28;20216;-70
2022/02/15 05:28:12;;;;;;;8.80;2.10;;;;;;;6.87;100.00;100656.19;4993591;28;20204;-71
2022/02/15 05:30:37;;;;;;;5.53;1.80;;;;;;;6.76;100.00;100641.44;4993697;28;20200;-70
2022/02/15 05:33:03;;;;;;;5.53;1.80;;;;;;;6.44;100.00;100599.03;4996125;28;20193;-70
2022/02/15 05:35:28;;;;;;;5.53;2.03;;;;;;;6.99;100.00;100656.59;4994752;28;20212;-70
2022/02/15 05:37:54;;;;;;;5.60;2.00;;;;;;;6.66;100.00;100624.88;4999303;28;20184;-71
2022/02/15 05:40:19;;;;;;;3.97;1.50;;;;;;;7.01;100.00;100654.59;5015606;28;20657;-71
2022/02/15 05:42:45;;;;;;;3.53;1.83;;;;;;;6.71;100.00;100632.31;5001405;28;20232;-71
2022/02/15 05:45:11;;;;;;;7.30;2.40;;;;;;;6.96;100.00;100659.63;5001670;28;20209;-71
2022/02/15 05:47:37;;;;;;;6.93;1.60;;;;;;;6.19;100.00;100545.09;4993158;28;20185;-71
2022/02/15 05:52:48;;;;;;;6.73;1.33;;;;;;;6.65;100.00;100633.03;4983897;28;20427;-71
2022/02/15 05:55:15;;;;;;;5.80;1.77;;;;;;;6.76;100.00;100661.94;4977541;28;20467;-72
2022/02/15 05:57:42;;;;;;;3.53;1.10;;;;;;;6.69;100.00;100639.69;4984230;28;20193;-69
2022/02/15 06:00:09;;;;;;;4.13;1.33;;;;;;;6.79;100.00;100667.72;4988885;28;20528;-70
2022/02/15 06:02:35;;;;;;;7.47;1.70;;;;;;;6.54;100.00;100661.75;4993552;28;20444;-70
2022/02/15 06:05:01;;;;;;;7.73;2.00;;;;;;;6.81;100.00;100675.56;4989317;28;20533;-70
2022/02/15 06:07:26;;;;;;;4.27;1.60;;;;;;;6.80;100.00;100689.91;4991014;28;20839;-69
2022/02/15 06:09:52;;;;;;;4.53;1.60;;;;;;;6.50;100.00;100628.47;4991172;28;20212;-70
2022/02/15 06:12:18;;;;;;;7.53;1.47;;;;;;;6.63;100.00;100667.88;4984710;28;20695;-70
2022/02/15 06:14:44;;;;;;;4.03;1.37;;;;;;;6.62;100.00;100649.38;4988664;28;20601;-71
2022/02/15 06:17:10;;;;;;;4.33;1.30;;;;;;;6.61;100.00;100653.88;4992530;28;20672;-70
2022/02/15 06:19:36;;;;;;;4.63;1.30;;;;;;;7.00;100.00;100700.91;4987234;28;20597;-70
2022/02/15 06:22:02;;;;;;;4.80;1.30;;;;;;;7.15;100.00;100700.97;4989817;28;21215;-71
2022/02/15 06:24:28;;;;;;;10.23;1.60;;;;;;;6.79;100.00;100696.22;4981553;28;20279;-71
2022/02/15 06:26:54;;;;;;;4.07;1.30;;;;;;;6.89;100.00;100712.00;4988152;28;20473;-71
2022/02/15 06:29:20;;;;;;;3.70;1.40;;;;;;;6.26;100.00;100644.63;4989021;28;20303;-70
2022/02/15 06:31:45;;;;;;;6.20;1.63;;;;;;;6.45;100.00;100680.63;5004852;28;20448;-70
2022/02/15 06:34:11;;;;;;;2.50;1.67;;;;;;;6.62;100.00;100706.16;4991866;28;21500;-71
2022/02/15 06:36:36;;;;;;;7.10;1.60;;;;;;;6.61;100.00;100677.88;4988367;28;20200;-71
2022/02/15 06:39:02;;;;;;;5.43;1.47;;;;;;;6.91;100.00;100724.13;4989393;28;20185;-70
2022/02/15 06:41:27;;;;;;;9.20;2.10;;;;;;;6.82;100.00;100725.22;4989223;28;20185;-70
2022/02/15 06:43:54;;;;;;;4.90;1.83;;;;;;;6.40;100.00;100697.16;4979788;28;20255;-70
2022/02/15 06:46:19;;;;;;;7.90;1.90;;;;;;;6.41;100.00;100642.03;4982706;28;20662;-70
2022/02/15 06:48:45;;;;;;;6.13;1.83;;;;;;;6.37;100.00;100678.03;4991992;28;20463;-70
2022/02/15 06:51:10;;;;;;;6.67;2.10;;;;;;;6.52;100.00;100695.75;4996221;28;20196;-71
2022/02/15 06:53:36;;;;;;;8.40;2.50;;;;;;;6.57;100.00;100737.88;4988411;28;20193;-71
2022/02/15 06:56:02;;;;;;;5.30;2.23;;;;;;;6.65;100.00;100760.97;4993675;28;20471;-70
2022/02/15 06:58:28;;;;;;;8.33;3.40;;;;;;;6.62;100.00;100755.97;4990435;28;20593;-70
2022/02/15 07:00:53;;;;;;;9.77;2.23;;;;;;;6.41;100.00;100729.94;4995756;28;20185;-71
2022/02/15 07:03:19;;;;;;;9.50;2.60;;;;;;;6.66;100.00;100770.63;4995713;28;20490;-71
2022/02/15 07:05:44;;;;;;;9.40;2.67;;;;;;;6.28;100.00;100714.53;4983403;28;20665;-71
2022/02/15 07:08:10;;;;;;;12.43;3.07;;;;;;;6.45;100.00;100721.44;4995455;28;20814;-70
2022/02/15 07:10:36;;;;;;;9.30;2.87;;;;;;;6.52;100.00;100769.53;4988126;28;21863;-70
2022/02/15 07:13:02;;;;;;;6.97;2.20;;;;;;;6.69;100.00;100756.97;4985954;28;20196;-70
2022/02/15 07:15:28;;;;;;;6.43;2.70;;;;;;;6.66;100.00;100770.63;4989782;28;20463;-70
2022/02/15 07:17:53;;;;;;;9.20;2.93;;;;;;;6.59;100.00;100754.50;4990077;28;20928;-70
2022/02/15 07:20:19;;;;;;;9.57;2.80;;;;;;;6.61;100.00;100775.66;4990658;28;20529;-70
2022/02/15 07:22:44;;;;;;;10.73;2.60;;;;;;;6.16;100.00;100713.25;4991068;28;20193;-71
2022/02/15 07:25:10;;;;;;;5.50;2.73;;;;;;;6.09;100.00;100699.78;4989425;28;20661;-71
2022/02/15 07:27:36;;;;;;;10.00;3.40;;;;;;;6.69;100.00;100786.28;4994071;28;20204;-71
2022/02/15 07:30:01;;;;;;;6.60;2.77;;;;;;;6.62;100.00;100788.78;4993348;28;20208;-71
2022/02/15 07:32:27;;;;;;;10.43;3.93;;;;;;;6.02;100.00;100715.63;4996512;28;20490;-71
2022/02/15 07:34:54;;;;;;;10.87;4.67;;;;;;;6.66;100.00;100802.63;4986246;28;20213;-71
2022/02/15 07:37:20;;;;;;;9.40;3.93;;;;;;;6.67;100.00;100810.44;4988586;28;20189;-71
2022/02/15 07:39:46;;;;;;;7.37;3.50;;;;;;;6.48;100.00;100811.69;4990141;28;21042;-71
2022/02/15 07:42:12;;;;;;;11.30;4.50;;;;;;;6.44;100.00;100793.53;4996483;28;20924;-71
2022/02/15 07:44:38;;;;;;;14.20;4.17;;;;;;;6.47;100.00;100812.69;4995523;28;21877;-71
2022/02/15 07:47:04;;;;;;;11.57;3.80;;;;;;;6.51;100.00;100779.38;4986223;28;24211;-71
2022/02/15 07:49:31;;;;;;;10.97;4.13;;;;;;;6.45;100.00;100761.41;4992741;28;20495;-70
2022/02/15 07:51:58;;;;;;;12.83;3.93;;;;;;;6.84;100.00;100803.19;4995415;28;20246;-71
2022/02/15 07:54:24;;;;;;;8.30;4.17;;;;;;;6.46;100.00;100811.03;4996136;28;20479;-71
2022/02/15 07:56:49;;;;;;;9.80;4.20;;;;;;;6.14;100.00;100758.69;4996551;28;20448;-71
2022/02/15 07:59:15;;;;;;;7.97;5.00;;;;;;;5.80;100.00;100692.38;4992121;28;20574;-71
2022/02/15 08:01:41;;;;;;;8.40;4.17;;;;;;;6.60;100.00;100813.97;4988187;28;20362;-71
2022/02/15 08:04:08;;;;;;;7.90;5.10;;;;;;;5.97;100.00;100728.63;4987497;28;20278;-71
2022/02/15 08:06:36;;;;;;;9.07;4.73;;;;;;;6.53;100.00;100811.97;4998552;28;20280;-71
2022/02/15 08:09:03;;;;;;;9.50;5.30;;;;;;;6.16;100.00;100770.00;4999666;28;20590;-71
2022/02/15 08:11:30;;;;;;;9.80;5.43;;;;;;;6.25;100.00;100774.31;5002099;28;20958;-71
2022/02/15 08:13:59;;;;;;;13.60;5.13;;;;;;;6.19;100.00;100774.16;5001126;28;20811;-71
2022/02/15 08:16:25;;;;;;;10.47;5.77;;;;;;;6.27;100.00;100784.78;5004241;28;20486;-71
2022/02/15 08:18:51;;;;;;;12.00;5.23;;;;;;;6.36;100.00;100783.75;4998366;28;20860;-71
2022/02/15 08:21:17;;;;;;;11.50;6.60;;;;;;;6.60;100.00;100811.31;5002422;28;20440;-71
2022/02/15 08:23:43;;;;;;;10.40;6.37;;;;;;;6.74;100.00;100830.06;4999672;28;20197;-71
2022/02/15 08:26:08;;;;;;;10.40;6.37;;;;;;;6.40;100.00;100749.63;4999237;28;20255;-72
2022/02/15 08:28:40;;;;;;;15.70;5.90;;;;;;;6.69;100.00;100832.41;5002205;28;20442;-71
2022/02/15 08:31:06;;;;;;;14.20;6.03;;;;;;;6.75;100.00;100847.72;4992683;28;20189;-71
2022/02/15 08:33:32;;;;;;;15.10;6.73;;;;;;;6.42;100.00;100783.06;4994203;28;20463;-72
2022/02/15 08:35:57;;;;;;;16.20;6.77;;;;;;;6.58;100.00;100827.47;5001410;28;20893;-71
2022/02/15 08:38:23;;;;;;;7.17;5.70;;;;;;;6.66;100.00;100826.59;5001043;28;20203;-72
2022/02/15 08:40:49;;;;;;;14.20;5.97;;;;;;;6.78;100.00;100843.88;4998309;28;20282;-71
2022/02/15 08:43:14;;;;;;;13.30;6.70;;;;;;;6.08;100.00;100760.22;5001649;28;20439;-72
2022/02/15 08:45:39;;;;;;;13.43;6.23;;;;;;;6.78;100.00;100844.69;4998773;28;20224;-71
2022/02/15 08:48:05;;;;;;;21.83;6.80;;;;;;;6.78;100.00;100817.22;5004560;28;20185;-69
2022/02/15 08:50:32;;;;;;;18.47;7.60;;;;;;;6.67;100.00;100797.09;4999536;28;20228;-69
2022/02/15 08:52:57;;;;;;;9.43;5.70;;;;;;;6.94;100.00;100843.81;4997429;28;20263;-71
2022/02/15 08:55:23;;;;;;;18.37;7.13;;;;;;;6.57;100.00;100744.03;4997974;28;20546;-70
2022/02/15 08:57:48;;;;;;;9.93;5.67;;;;;;;6.88;100.00;100811.66;5000756;28;20618;-69
2022/02/15 09:00:15;;;;;;;11.30;6.30;;;;;;;6.91;100.00;100804.13;4998411;28;20201;-70
2022/02/15 09:02:40;;;;;;;13.43;6.70;;;;;;;6.98;100.00;100834.44;4995641;28;20197;-70
2022/02/15 09:05:09;;;;;;;14.70;6.80;;;;;;;6.69;100.00;100788.94;5005618;23;20550;-73
2022/02/15 09:07:34;;;;;;;10.30;6.23;;;;;;;6.54;100.00;100755.03;4999463;28;20193;-74
2022/02/15 09:10:00;;;;;;;12.30;6.47;;;;;;;6.79;100.00;100798.38;4999628;28;20498;-73
2022/02/15 09:12:26;;;;;;;17.30;6.80;;;;;;;5.09;100.00;100537.97;4999632;28;20543;-74
2022/02/15 09:14:51;;;;;;;14.10;6.07;;;;;;;6.94;100.00;100848.28;4995151;28;20251;-72
2022/02/15 09:17:17;;;;;;;15.13;7.87;;;;;;;6.82;100.00;100834.50;4972254;28;20198;-75
2022/02/15 09:19:42;;;;;;;18.27;7.00;;;;;;;6.73;100.00;100827.56;4964460;28;20185;-71
2022/02/15 09:22:08;;;;;;;17.57;7.80;;;;;;;6.73;100.00;100848.88;4982616;28;20223;-73
2022/02/15 09:24:33;;;;;;;12.43;7.60;;;;;;;6.39;100.00;100791.38;4985742;28;20284;-75
2022/02/15 09:26:59;;;;;;;11.97;7.40;;;;;;;6.92;100.00;100832.47;4985677;28;20186;-74
2022/02/15 09:29:24;;;;;;;15.87;7.70;;;;;;;6.20;100.00;100754.53;4982299;28;20300;-72
2022/02/15 09:31:50;;;;;;;13.50;7.00;;;;;;;7.03;100.00;100868.59;4983874;28;20230;-73
2022/02/15 09:34:18;;;;;;;13.53;7.53;;;;;;;6.37;100.00;100773.94;4981478;28;20213;-73
2022/02/15 09:36:43;;;;;;;14.30;7.67;;;;;;;5.68;100.00;100645.84;4979245;28;20236;-74
2022/02/15 09:39:09;;;;;;;18.17;7.13;;;;;;;6.62;100.00;100804.78;4981647;28;20472;-73
2022/02/15 09:41:34;;;;;;;14.33;8.70;;;;;;;6.92;100.00;100880.47;4986882;28;20182;-73
2022/02/15 09:44:05;;;;;;;10.57;8.00;;;;;;;7.05;100.00;100871.06;4978505;28;20285;-73
2022/02/15 09:46:32;;;;;;;13.80;8.57;;;;;;;6.31;100.00;100749.66;4984866;28;20209;-73
2022/02/15 09:48:57;;;;;;;12.40;7.67;;;;;;;7.07;100.00;100864.56;4985262;28;20460;-73
2022/02/15 09:51:25;;;;;;;13.20;7.57;;;;;;;7.31;100.00;100863.56;4983898;28;21201;-74
2022/02/15 09:53:52;;;;;;;13.43;7.93;;;;;;;7.07;100.00;100831.72;4994304;28;20209;-73
2022/02/15 09:56:18;;;;;;;16.63;8.43;;;;;;;7.28;100.00;100839.09;4979293;28;20499;-72
2022/02/15 09:58:43;;;;;;;17.10;8.10;;;;;;;7.42;100.00;100855.16;4974792;28;20527;-73
2022/02/15 10:01:13;;;;;;;14.90;8.80;;;;;;;6.68;100.00;100761.47;4981535;28;20453;-71
2022/02/15 10:03:59;;;;;;;12.37;8.60;;;;;;;7.37;100.00;100846.84;4979549;28;20194;-74
2022/02/15 10:06:32;;;;;;;19.20;9.30;;;;;;;6.96;100.00;100825.78;4981777;28;20468;-73
2022/02/15 10:09:00;;;;;;;12.40;7.50;;;;;;;7.25;100.00;100854.44;4982044;28;20551;-74
2022/02/15 10:11:42;;;;;;;19.77;9.70;;;;;;;7.24;100.00;100862.63;4983239;28;20444;-75
2022/02/15 10:14:09;;;;;;;17.17;8.60;;;;;;;7.01;100.00;100803.94;4998624;28;20440;-73
2022/02/15 10:16:46;;;;;;;13.37;8.27;;;;;;;7.28;100.00;100850.59;4973995;28;20463;-72
2022/02/15 10:19:21;;;;;;;19.57;10.00;;;;;;;7.42;100.00;100841.00;4984509;28;20447;-74
2022/02/15 10:21:48;;;;;;;15.13;9.33;;;;;;;7.25;100.00;100858.94;4978249;28;20786;-73
2022/02/15 10:24:14;;;;;;;12.70;9.40;;;;;;;7.29;100.00;100859.41;4981533;28;20433;-73
2022/02/15 10:26:40;;;;;;;12.90;8.90;;;;;;;7.39;100.00;100854.69;4983247;28;20475;-72
2022/02/15 10:29:06;;;;;;;14.33;9.63;;;;;;;7.27;100.00;100816.91;4984212;28;20519;-71
2022/02/15 10:31:39;;;;;;;17.60;8.53;;;;;;;7.08;100.00;100761.38;4979930;28;20190;-74
2022/02/15 10:34:05;;;;;;;13.27;8.40;;;;;;;7.73;100.00;100848.94;4986407;28;20252;-72
2022/02/15 10:36:30;;;;;;;13.33;8.23;;;;;;;7.65;100.00;100852.50;4984820;28;20475;-73
2022/02/15 10:38:57;;;;;;;12.90;7.90;;;;;;;7.30;100.00;100802.41;4984932;28;20451;-72
2022/02/15 10:41:22;;;;;;;12.50;7.60;;;;;;;7.10;100.00;100760.19;4984845;28;20182;-71
2022/02/15 10:43:50;;;;;;;17.00;7.23;;;;;;;7.78;100.00;100857.25;4980228;28;21052;-76
2022/02/15 10:46:19;;;;;;;12.03;6.70;;;;;;;7.64;100.00;100861.50;4984136;28;20205;-73
2022/02/15 10:48:46;;;;;;;10.13;6.00;;;;;;;7.77;100.00;100857.41;4986255;28;20836;-73
2022/02/15 10:51:12;;;;;;;14.23;6.60;;;;;;;7.66;100.00;100848.78;4985100;28;20453;-74
2022/02/15 10:53:38;;;;;;;14.23;6.47;;;;;;;6.81;100.00;100701.41;4976437;28;20487;-74
2022/02/15 10:56:05;;;;;;;11.80;5.73;;;;;;;7.79;100.00;100853.56;4985659;28;20452;-73
2022/02/15 10:58:32;;;;;;;11.97;5.70;;;;;;;7.68;100.00;100837.94;4987571;28;20437;-73
2022/02/15 11:01:00;;;;;;;15.03;5.00;;;;;;;7.94;100.00;100848.22;4989556;28;20455;-74
2022/02/15 11:03:30;;;;;;;13.40;4.70;;;;;;;7.90;100.00;100838.94;4986206;28;20440;-73
2022/02/15 11:05:57;;;;;;;14.40;5.03;;;;;;;7.68;100.00;100861.97;4989091;28;20672;-72
2022/02/15 11:08:23;;;;;;;13.23;4.60;;;;;;;7.69;100.00;100843.13;4988928;28;20444;-75
2022/02/15 11:10:49;;;;;;;12.73;4.77;;;;;;;7.89;100.00;100838.09;4989753;28;20961;-76
2022/02/15 11:13:14;;;;;;;8.77;3.97;;;;;;;8.02;100.00;100840.16;4985576;28;20452;-75
2022/02/15 11:15:41;;;;;;;13.60;3.57;;;;;;;8.24;100.00;100834.91;4984143;28;20205;-73
2022/02/15 11:18:10;;;;;;;10.00;3.03;;;;;;;8.06;100.00;100844.09;4987488;28;20186;-72
2022/02/15 11:20:56;;;;;;;14.13;4.03;;;;;;;7.27;100.00;100702.19;4985745;28;20441;-73
2022/02/15 11:23:30;;;;;;;6.93;3.00;;;;;;;7.98;100.00;100824.66;4987800;28;20432;-70